sensor_id;sensor_type;location;lat;lon;timestamp;P1;durP1;ratioP1;P2;durP2;ratioP2
4206;SDS011;2117;47.972;7.830;2024-02-04T00:00:30;4.13;;;2.67;;
4206;SDS011;2117;47.972;7.830;2024-02-04T00:02:55;4.27;;;2.83;;
4206;SDS011;2117;47.972;7.830;2024-02-04T00:05:21;4.00;;;3.00;;
4206;SDS011;2117;47.972;7.830;2024-02-04T00:07:46;6.00;;;4.27;;
4206;SDS011;2117;47.972;7.830;2024-02-04T00:10:12;5.60;;;3.90;;
4206;SDS011;2117;47.972;7.830;2024-02-04T00:12:40;5.50;;;3.90;;
4206;SDS011;2117;47.972;7.830;2024-02-04T00:15:06;5.17;;;3.70;;
4206;SDS011;2117;47.972;7.830;2024-02-04T00:17:31;6.00;;;3.70;;
4206;SDS011;2117;47.972;7.830;2024-02-04T00:20:01;3.93;;;3.17;;
4206;SDS011;2117;47.972;7.830;2024-02-04T00:22:28;4.57;;;3.23;;
4206;SDS011;2117;47.972;7.830;2024-02-04T00:24:54;5.50;;;3.57;;
4206;SDS011;2117;47.972;7.830;2024-02-04T00:27:19;4.17;;;3.30;;
4206;SDS011;2117;47.972;7.830;2024-02-04T00:29:45;6.40;;;3.77;;
4206;SDS011;2117;47.972;7.830;2024-02-04T00:32:10;7.83;;;3.33;;
4206;SDS011;2117;47.972;7.830;2024-02-04T00:34:36;5.33;;;3.50;;
4206;SDS011;2117;47.972;7.830;2024-02-04T00:37:02;6.10;;;3.60;;
4206;SDS011;2117;47.972;7.830;2024-02-04T00:39:27;4.80;;;3.27;;
4206;SDS011;2117;47.972;7.830;2024-02-04T00:41:53;4.50;;;3.20;;
4206;SDS011;2117;47.972;7.830;2024-02-04T00:44:19;4.80;;;2.80;;
4206;SDS011;2117;47.972;7.830;2024-02-04T00:46:44;4.77;;;2.90;;
4206;SDS011;2117;47.972;7.830;2024-02-04T00:49:10;5.57;;;4.07;;
4206;SDS011;2117;47.972;7.830;2024-02-04T00:51:35;6.03;;;3.00;;
4206;SDS011;2117;47.972;7.830;2024-02-04T00:54:01;7.43;;;3.27;;
4206;SDS011;2117;47.972;7.830;2024-02-04T00:56:27;5.37;;;2.77;;
4206;SDS011;2117;47.972;7.830;2024-02-04T00:58:52;5.67;;;3.37;;
4206;SDS011;2117;47.972;7.830;2024-02-04T01:01:18;5.10;;;2.97;;
4206;SDS011;2117;47.972;7.830;2024-02-04T01:03:44;4.40;;;3.20;;
4206;SDS011;2117;47.972;7.830;2024-02-04T01:06:10;4.13;;;2.73;;
4206;SDS011;2117;47.972;7.830;2024-02-04T01:08:35;6.80;;;2.97;;
4206;SDS011;2117;47.972;7.830;2024-02-04T01:11:02;3.50;;;3.13;;
4206;SDS011;2117;47.972;7.830;2024-02-04T01:13:31;5.33;;;3.03;;
4206;SDS011;2117;47.972;7.830;2024-02-04T01:15:57;4.00;;;2.93;;
4206;SDS011;2117;47.972;7.830;2024-02-04T01:18:23;4.07;;;3.40;;
4206;SDS011;2117;47.972;7.830;2024-02-04T01:20:48;4.30;;;2.83;;
4206;SDS011;2117;47.972;7.830;2024-02-04T01:23:14;3.80;;;2.47;;
4206;SDS011;2117;47.972;7.830;2024-02-04T01:25:42;4.67;;;2.97;;
4206;SDS011;2117;47.972;7.830;2024-02-04T01:28:08;3.40;;;2.50;;
4206;SDS011;2117;47.972;7.830;2024-02-04T01:30:34;3.07;;;2.20;;
4206;SDS011;2117;47.972;7.830;2024-02-04T01:33:00;3.47;;;2.23;;
4206;SDS011;2117;47.972;7.830;2024-02-04T01:35:25;3.33;;;2.07;;
4206;SDS011;2117;47.972;7.830;2024-02-04T01:37:51;4.20;;;2.40;;
4206;SDS011;2117;47.972;7.830;2024-02-04T01:40:16;3.20;;;2.37;;
4206;SDS011;2117;47.972;7.830;2024-02-04T01:42:43;4.50;;;2.77;;
4206;SDS011;2117;47.972;7.830;2024-02-04T01:45:09;5.33;;;2.60;;
4206;SDS011;2117;47.972;7.830;2024-02-04T01:47:35;3.30;;;2.30;;
4206;SDS011;2117;47.972;7.830;2024-02-04T01:50:01;2.73;;;2.03;;
4206;SDS011;2117;47.972;7.830;2024-02-04T01:52:28;3.97;;;2.83;;
4206;SDS011;2117;47.972;7.830;2024-02-04T01:54:55;3.70;;;1.97;;
4206;SDS011;2117;47.972;7.830;2024-02-04T01:57:21;3.20;;;2.50;;
4206;SDS011;2117;47.972;7.830;2024-02-04T01:59:48;2.73;;;2.00;;
4206;SDS011;2117;47.972;7.830;2024-02-04T02:02:16;3.27;;;2.23;;
4206;SDS011;2117;47.972;7.830;2024-02-04T02:04:42;3.53;;;2.30;;
4206;SDS011;2117;47.972;7.830;2024-02-04T02:07:09;3.20;;;2.23;;
4206;SDS011;2117;47.972;7.830;2024-02-04T02:09:35;3.10;;;1.90;;
4206;SDS011;2117;47.972;7.830;2024-02-04T02:12:07;3.40;;;2.00;;
4206;SDS011;2117;47.972;7.830;2024-02-04T02:14:35;3.10;;;1.73;;
4206;SDS011;2117;47.972;7.830;2024-02-04T02:17:06;3.40;;;2.33;;
4206;SDS011;2117;47.972;7.830;2024-02-04T02:22:25;2.87;;;1.83;;
4206;SDS011;2117;47.972;7.830;2024-02-04T02:24:56;3.47;;;1.80;;
4206;SDS011;2117;47.972;7.830;2024-02-04T02:27:24;3.00;;;1.90;;
4206;SDS011;2117;47.972;7.830;2024-02-04T02:29:49;3.30;;;2.20;;
4206;SDS011;2117;47.972;7.830;2024-02-04T02:32:15;2.20;;;1.63;;
4206;SDS011;2117;47.972;7.830;2024-02-04T02:34:41;2.93;;;1.83;;
4206;SDS011;2117;47.972;7.830;2024-02-04T02:37:08;3.60;;;2.00;;
4206;SDS011;2117;47.972;7.830;2024-02-04T02:39:39;3.20;;;1.83;;
4206;SDS011;2117;47.972;7.830;2024-02-04T02:42:10;3.20;;;2.40;;
4206;SDS011;2117;47.972;7.830;2024-02-04T02:44:38;2.60;;;1.63;;
4206;SDS011;2117;47.972;7.830;2024-02-04T02:47:04;2.40;;;1.63;;
4206;SDS011;2117;47.972;7.830;2024-02-04T02:49:31;1.90;;;1.30;;
4206;SDS011;2117;47.972;7.830;2024-02-04T02:51:57;4.00;;;2.00;;
4206;SDS011;2117;47.972;7.830;2024-02-04T02:54:22;3.20;;;1.97;;
4206;SDS011;2117;47.972;7.830;2024-02-04T02:56:48;3.87;;;1.90;;
4206;SDS011;2117;47.972;7.830;2024-02-04T02:59:13;2.63;;;1.50;;
4206;SDS011;2117;47.972;7.830;2024-02-04T03:01:39;3.23;;;1.60;;
4206;SDS011;2117;47.972;7.830;2024-02-04T03:04:05;2.90;;;2.23;;
4206;SDS011;2117;47.972;7.830;2024-02-04T03:06:31;2.47;;;1.60;;
4206;SDS011;2117;47.972;7.830;2024-02-04T03:08:56;4.07;;;1.77;;
4206;SDS011;2117;47.972;7.830;2024-02-04T03:11:22;3.03;;;2.17;;
4206;SDS011;2117;47.972;7.830;2024-02-04T03:13:47;4.10;;;1.90;;
4206;SDS011;2117;47.972;7.830;2024-02-04T03:16:13;2.83;;;1.33;;
4206;SDS011;2117;47.972;7.830;2024-02-04T03:18:42;2.90;;;1.53;;
4206;SDS011;2117;47.972;7.830;2024-02-04T03:21:12;2.57;;;1.60;;
4206;SDS011;2117;47.972;7.830;2024-02-04T03:23:41;2.90;;;2.33;;
4206;SDS011;2117;47.972;7.830;2024-02-04T03:26:08;2.27;;;1.63;;
4206;SDS011;2117;47.972;7.830;2024-02-04T03:28:35;2.10;;;1.40;;
4206;SDS011;2117;47.972;7.830;2024-02-04T03:31:00;4.53;;;1.60;;
4206;SDS011;2117;47.972;7.830;2024-02-04T03:33:26;2.70;;;1.47;;
4206;SDS011;2117;47.972;7.830;2024-02-04T03:35:52;2.80;;;1.80;;
4206;SDS011;2117;47.972;7.830;2024-02-04T03:38:17;2.63;;;1.70;;
4206;SDS011;2117;47.972;7.830;2024-02-04T03:40:43;2.60;;;1.50;;
4206;SDS011;2117;47.972;7.830;2024-02-04T03:43:09;2.23;;;1.43;;
4206;SDS011;2117;47.972;7.830;2024-02-04T03:45:37;2.63;;;1.43;;
4206;SDS011;2117;47.972;7.830;2024-02-04T03:48:03;2.40;;;1.60;;
4206;SDS011;2117;47.972;7.830;2024-02-04T03:50:29;1.97;;;1.10;;
4206;SDS011;2117;47.972;7.830;2024-02-04T03:52:54;2.77;;;1.60;;
4206;SDS011;2117;47.972;7.830;2024-02-04T03:55:20;5.33;;;1.60;;
4206;SDS011;2117;47.972;7.830;2024-02-04T03:57:45;2.40;;;1.70;;
4206;SDS011;2117;47.972;7.830;2024-02-04T04:00:12;2.90;;;1.63;;
4206;SDS011;2117;47.972;7.830;2024-02-04T04:02:39;2.17;;;1.13;;
4206;SDS011;2117;47.972;7.830;2024-02-04T04:05:05;2.13;;;1.40;;
4206;SDS011;2117;47.972;7.830;2024-02-04T04:07:31;2.70;;;1.40;;
4206;SDS011;2117;47.972;7.830;2024-02-04T04:09:57;2.23;;;1.13;;
4206;SDS011;2117;47.972;7.830;2024-02-04T04:12:22;1.97;;;1.20;;
4206;SDS011;2117;47.972;7.830;2024-02-04T04:14:48;2.27;;;1.70;;
4206;SDS011;2117;47.972;7.830;2024-02-04T04:17:13;2.63;;;1.20;;
4206;SDS011;2117;47.972;7.830;2024-02-04T04:19:39;2.37;;;1.67;;
4206;SDS011;2117;47.972;7.830;2024-02-04T04:22:04;1.70;;;1.00;;
4206;SDS011;2117;47.972;7.830;2024-02-04T04:24:30;2.20;;;1.50;;
4206;SDS011;2117;47.972;7.830;2024-02-04T04:26:55;2.77;;;1.43;;
4206;SDS011;2117;47.972;7.830;2024-02-04T04:29:21;1.40;;;0.93;;
4206;SDS011;2117;47.972;7.830;2024-02-04T04:31:47;1.80;;;1.20;;
4206;SDS011;2117;47.972;7.830;2024-02-04T04:34:13;2.17;;;1.20;;
4206;SDS011;2117;47.972;7.830;2024-02-04T04:36:38;2.10;;;1.20;;
4206;SDS011;2117;47.972;7.830;2024-02-04T04:39:04;1.90;;;0.90;;
4206;SDS011;2117;47.972;7.830;2024-02-04T04:41:30;3.00;;;0.90;;
4206;SDS011;2117;47.972;7.830;2024-02-04T04:43:56;1.67;;;1.10;;
4206;SDS011;2117;47.972;7.830;2024-02-04T04:46:21;3.97;;;1.20;;
4206;SDS011;2117;47.972;7.830;2024-02-04T04:48:47;1.40;;;0.80;;
4206;SDS011;2117;47.972;7.830;2024-02-04T04:51:12;2.17;;;1.10;;
4206;SDS011;2117;47.972;7.830;2024-02-04T04:53:38;3.63;;;1.20;;
4206;SDS011;2117;47.972;7.830;2024-02-04T04:56:04;1.70;;;1.07;;
4206;SDS011;2117;47.972;7.830;2024-02-04T04:58:30;1.83;;;1.10;;
4206;SDS011;2117;47.972;7.830;2024-02-04T05:00:55;3.80;;;1.70;;
4206;SDS011;2117;47.972;7.830;2024-02-04T05:03:21;1.60;;;1.00;;
4206;SDS011;2117;47.972;7.830;2024-02-04T05:05:46;2.30;;;1.50;;
4206;SDS011;2117;47.972;7.830;2024-02-04T05:08:13;2.23;;;1.17;;
4206;SDS011;2117;47.972;7.830;2024-02-04T05:10:40;2.80;;;1.20;;
4206;SDS011;2117;47.972;7.830;2024-02-04T05:13:06;2.23;;;1.17;;
4206;SDS011;2117;47.972;7.830;2024-02-04T05:15:32;2.17;;;1.50;;
4206;SDS011;2117;47.972;7.830;2024-02-04T05:17:59;3.10;;;1.60;;
4206;SDS011;2117;47.972;7.830;2024-02-04T05:20:25;2.07;;;1.10;;
4206;SDS011;2117;47.972;7.830;2024-02-04T05:22:51;2.70;;;1.33;;
4206;SDS011;2117;47.972;7.830;2024-02-04T05:25:16;2.03;;;1.23;;
4206;SDS011;2117;47.972;7.830;2024-02-04T05:27:42;3.23;;;1.27;;
4206;SDS011;2117;47.972;7.830;2024-02-04T05:30:07;1.87;;;1.03;;
4206;SDS011;2117;47.972;7.830;2024-02-04T05:32:33;2.10;;;1.10;;
4206;SDS011;2117;47.972;7.830;2024-02-04T05:34:59;1.83;;;1.20;;
4206;SDS011;2117;47.972;7.830;2024-02-04T05:37:25;2.10;;;1.10;;
4206;SDS011;2117;47.972;7.830;2024-02-04T05:39:50;4.03;;;1.10;;
4206;SDS011;2117;47.972;7.830;2024-02-04T05:42:17;1.90;;;1.03;;
4206;SDS011;2117;47.972;7.830;2024-02-04T05:44:43;2.17;;;1.10;;
4206;SDS011;2117;47.972;7.830;2024-02-04T05:47:08;2.90;;;1.03;;
4206;SDS011;2117;47.972;7.830;2024-02-04T05:49:34;2.00;;;1.10;;
4206;SDS011;2117;47.972;7.830;2024-02-04T05:51:59;2.70;;;1.27;;
4206;SDS011;2117;47.972;7.830;2024-02-04T05:54:25;2.80;;;1.10;;
4206;SDS011;2117;47.972;7.830;2024-02-04T05:56:50;1.93;;;0.97;;
4206;SDS011;2117;47.972;7.830;2024-02-04T05:59:16;1.60;;;1.07;;
4206;SDS011;2117;47.972;7.830;2024-02-04T06:01:42;1.50;;;0.77;;
4206;SDS011;2117;47.972;7.830;2024-02-04T06:04:09;1.90;;;0.97;;
4206;SDS011;2117;47.972;7.830;2024-02-04T06:06:35;1.50;;;1.00;;
4206;SDS011;2117;47.972;7.830;2024-02-04T06:09:00;2.03;;;1.00;;
4206;SDS011;2117;47.972;7.830;2024-02-04T06:11:26;2.50;;;1.13;;
4206;SDS011;2117;47.972;7.830;2024-02-04T06:13:52;1.80;;;1.20;;
4206;SDS011;2117;47.972;7.830;2024-02-04T06:16:19;2.07;;;0.97;;
4206;SDS011;2117;47.972;7.830;2024-02-04T06:18:44;1.67;;;0.90;;
4206;SDS011;2117;47.972;7.830;2024-02-04T06:21:10;1.77;;;1.00;;
4206;SDS011;2117;47.972;7.830;2024-02-04T06:23:37;3.33;;;1.53;;
4206;SDS011;2117;47.972;7.830;2024-02-04T06:26:03;2.33;;;1.00;;
4206;SDS011;2117;47.972;7.830;2024-02-04T06:28:29;2.77;;;1.40;;
4206;SDS011;2117;47.972;7.830;2024-02-04T06:30:55;1.93;;;1.00;;
4206;SDS011;2117;47.972;7.830;2024-02-04T06:33:21;1.73;;;1.10;;
4206;SDS011;2117;47.972;7.830;2024-02-04T06:35:48;2.30;;;0.97;;
4206;SDS011;2117;47.972;7.830;2024-02-04T06:38:13;1.93;;;1.27;;
4206;SDS011;2117;47.972;7.830;2024-02-04T06:40:39;2.17;;;1.10;;
4206;SDS011;2117;47.972;7.830;2024-02-04T06:43:04;1.60;;;1.00;;
4206;SDS011;2117;47.972;7.830;2024-02-04T06:45:30;1.90;;;1.07;;
4206;SDS011;2117;47.972;7.830;2024-02-04T06:47:55;1.63;;;1.07;;
4206;SDS011;2117;47.972;7.830;2024-02-04T06:50:21;2.03;;;1.07;;
4206;SDS011;2117;47.972;7.830;2024-02-04T06:52:47;1.23;;;0.70;;
4206;SDS011;2117;47.972;7.830;2024-02-04T06:55:12;1.90;;;0.83;;
4206;SDS011;2117;47.972;7.830;2024-02-04T06:57:38;2.30;;;0.73;;
4206;SDS011;2117;47.972;7.830;2024-02-04T07:00:05;2.10;;;0.80;;
4206;SDS011;2117;47.972;7.830;2024-02-04T07:02:33;2.07;;;0.90;;
4206;SDS011;2117;47.972;7.830;2024-02-04T07:04:59;3.30;;;1.50;;
4206;SDS011;2117;47.972;7.830;2024-02-04T07:07:24;4.03;;;1.53;;
4206;SDS011;2117;47.972;7.830;2024-02-04T07:09:50;1.80;;;1.47;;
4206;SDS011;2117;47.972;7.830;2024-02-04T07:12:15;1.37;;;0.77;;
4206;SDS011;2117;47.972;7.830;2024-02-04T07:14:41;1.40;;;0.80;;
4206;SDS011;2117;47.972;7.830;2024-02-04T07:17:07;1.33;;;0.60;;
4206;SDS011;2117;47.972;7.830;2024-02-04T07:19:32;1.10;;;0.60;;
4206;SDS011;2117;47.972;7.830;2024-02-04T07:21:58;3.20;;;0.80;;
4206;SDS011;2117;47.972;7.830;2024-02-04T07:24:23;1.20;;;0.60;;
4206;SDS011;2117;47.972;7.830;2024-02-04T07:26:49;1.30;;;0.70;;
4206;SDS011;2117;47.972;7.830;2024-02-04T07:29:14;1.23;;;0.60;;
4206;SDS011;2117;47.972;7.830;2024-02-04T07:31:40;2.60;;;0.60;;
4206;SDS011;2117;47.972;7.830;2024-02-04T07:34:07;2.40;;;0.70;;
4206;SDS011;2117;47.972;7.830;2024-02-04T07:36:32;1.83;;;0.70;;
4206;SDS011;2117;47.972;7.830;2024-02-04T07:38:58;2.03;;;0.73;;
4206;SDS011;2117;47.972;7.830;2024-02-04T07:41:24;2.63;;;0.73;;
4206;SDS011;2117;47.972;7.830;2024-02-04T07:43:51;1.33;;;0.60;;
4206;SDS011;2117;47.972;7.830;2024-02-04T07:46:16;1.30;;;0.70;;
4206;SDS011;2117;47.972;7.830;2024-02-04T07:48:42;1.63;;;0.80;;
4206;SDS011;2117;47.972;7.830;2024-02-04T07:51:07;1.97;;;0.90;;
4206;SDS011;2117;47.972;7.830;2024-02-04T07:53:33;1.50;;;0.83;;
4206;SDS011;2117;47.972;7.830;2024-02-04T07:55:59;1.40;;;0.77;;
4206;SDS011;2117;47.972;7.830;2024-02-04T07:58:25;1.10;;;0.60;;
4206;SDS011;2117;47.972;7.830;2024-02-04T08:00:52;2.17;;;1.10;;
4206;SDS011;2117;47.972;7.830;2024-02-04T08:03:17;1.67;;;0.70;;
4206;SDS011;2117;47.972;7.830;2024-02-04T08:05:43;1.60;;;1.03;;
4206;SDS011;2117;47.972;7.830;2024-02-04T08:08:09;2.17;;;0.70;;
4206;SDS011;2117;47.972;7.830;2024-02-04T08:10:34;1.80;;;0.80;;
4206;SDS011;2117;47.972;7.830;2024-02-04T08:13:00;1.30;;;0.77;;
4206;SDS011;2117;47.972;7.830;2024-02-04T08:15:25;2.30;;;0.60;;
4206;SDS011;2117;47.972;7.830;2024-02-04T08:17:51;2.70;;;0.87;;
4206;SDS011;2117;47.972;7.830;2024-02-04T08:20:17;2.63;;;1.10;;
4206;SDS011;2117;47.972;7.830;2024-02-04T08:22:43;1.17;;;0.60;;
4206;SDS011;2117;47.972;7.830;2024-02-04T08:25:09;1.10;;;0.60;;
4206;SDS011;2117;47.972;7.830;2024-02-04T08:27:36;1.67;;;0.70;;
4206;SDS011;2117;47.972;7.830;2024-02-04T08:30:02;1.40;;;0.63;;
4206;SDS011;2117;47.972;7.830;2024-02-04T08:32:28;1.60;;;0.70;;
4206;SDS011;2117;47.972;7.830;2024-02-04T08:34:53;1.77;;;0.60;;
4206;SDS011;2117;47.972;7.830;2024-02-04T08:37:19;1.67;;;0.60;;
4206;SDS011;2117;47.972;7.830;2024-02-04T08:39:45;1.40;;;0.70;;
4206;SDS011;2117;47.972;7.830;2024-02-04T08:42:10;1.50;;;0.70;;
4206;SDS011;2117;47.972;7.830;2024-02-04T08:44:36;1.37;;;0.63;;
4206;SDS011;2117;47.972;7.830;2024-02-04T08:47:02;1.53;;;0.60;;
4206;SDS011;2117;47.972;7.830;2024-02-04T08:49:28;3.00;;;0.80;;
4206;SDS011;2117;47.972;7.830;2024-02-04T08:51:54;1.30;;;0.60;;
4206;SDS011;2117;47.972;7.830;2024-02-04T08:54:20;2.23;;;0.60;;
4206;SDS011;2117;47.972;7.830;2024-02-04T08:56:45;1.00;;;0.50;;
4206;SDS011;2117;47.972;7.830;2024-02-04T08:59:11;2.13;;;0.60;;
4206;SDS011;2117;47.972;7.830;2024-02-04T09:01:36;2.83;;;0.70;;
4206;SDS011;2117;47.972;7.830;2024-02-04T09:04:02;1.40;;;0.57;;
4206;SDS011;2117;47.972;7.830;2024-02-04T09:06:28;2.10;;;0.50;;
4206;SDS011;2117;47.972;7.830;2024-02-04T09:08:53;1.30;;;0.60;;
4206;SDS011;2117;47.972;7.830;2024-02-04T09:11:19;1.00;;;0.50;;
4206;SDS011;2117;47.972;7.830;2024-02-04T09:13:45;1.10;;;0.60;;
4206;SDS011;2117;47.972;7.830;2024-02-04T09:16:11;2.30;;;0.80;;
4206;SDS011;2117;47.972;7.830;2024-02-04T09:18:37;1.73;;;0.50;;
4206;SDS011;2117;47.972;7.830;2024-02-04T09:21:02;1.40;;;0.70;;
4206;SDS011;2117;47.972;7.830;2024-02-04T09:23:28;1.20;;;0.60;;
4206;SDS011;2117;47.972;7.830;2024-02-04T09:25:54;1.53;;;0.60;;
4206;SDS011;2117;47.972;7.830;2024-02-04T09:28:19;3.00;;;0.60;;
4206;SDS011;2117;47.972;7.830;2024-02-04T09:30:45;2.20;;;0.50;;
4206;SDS011;2117;47.972;7.830;2024-02-04T09:33:11;1.63;;;0.70;;
4206;SDS011;2117;47.972;7.830;2024-02-04T09:35:38;1.80;;;0.60;;
4206;SDS011;2117;47.972;7.830;2024-02-04T09:38:04;1.40;;;0.60;;
4206;SDS011;2117;47.972;7.830;2024-02-04T09:40:29;1.10;;;0.60;;
4206;SDS011;2117;47.972;7.830;2024-02-04T09:42:56;1.10;;;0.60;;
4206;SDS011;2117;47.972;7.830;2024-02-04T09:45:23;3.20;;;0.70;;
4206;SDS011;2117;47.972;7.830;2024-02-04T09:47:48;1.30;;;0.60;;
4206;SDS011;2117;47.972;7.830;2024-02-04T09:50:17;1.60;;;0.70;;
4206;SDS011;2117;47.972;7.830;2024-02-04T09:52:45;1.80;;;0.70;;
4206;SDS011;2117;47.972;7.830;2024-02-04T09:55:19;1.10;;;0.60;;
4206;SDS011;2117;47.972;7.830;2024-02-04T09:57:48;1.30;;;0.70;;
4206;SDS011;2117;47.972;7.830;2024-02-04T10:00:13;1.20;;;0.60;;
4206;SDS011;2117;47.972;7.830;2024-02-04T10:02:43;1.60;;;0.70;;
4206;SDS011;2117;47.972;7.830;2024-02-04T10:05:09;1.93;;;0.60;;
4206;SDS011;2117;47.972;7.830;2024-02-04T10:07:35;1.10;;;0.60;;
4206;SDS011;2117;47.972;7.830;2024-02-04T10:10:01;1.30;;;0.67;;
4206;SDS011;2117;47.972;7.830;2024-02-04T10:12:27;1.50;;;0.87;;
4206;SDS011;2117;47.972;7.830;2024-02-04T10:14:52;1.20;;;0.50;;
4206;SDS011;2117;47.972;7.830;2024-02-04T10:17:18;4.80;;;0.60;;
4206;SDS011;2117;47.972;7.830;2024-02-04T10:19:46;1.30;;;0.60;;
4206;SDS011;2117;47.972;7.830;2024-02-04T10:22:13;1.10;;;0.60;;
4206;SDS011;2117;47.972;7.830;2024-02-04T10:24:39;1.30;;;0.60;;
4206;SDS011;2117;47.972;7.830;2024-02-04T10:27:05;1.10;;;0.60;;
4206;SDS011;2117;47.972;7.830;2024-02-04T10:29:30;1.23;;;0.70;;
4206;SDS011;2117;47.972;7.830;2024-02-04T10:31:56;1.20;;;0.60;;
4206;SDS011;2117;47.972;7.830;2024-02-04T10:34:31;1.37;;;0.60;;
4206;SDS011;2117;47.972;7.830;2024-02-04T10:36:56;1.40;;;0.60;;
4206;SDS011;2117;47.972;7.830;2024-02-04T10:39:22;1.10;;;0.50;;
4206;SDS011;2117;47.972;7.830;2024-02-04T10:41:51;1.10;;;0.50;;
4206;SDS011;2117;47.972;7.830;2024-02-04T10:44:18;1.00;;;0.50;;
4206;SDS011;2117;47.972;7.830;2024-02-04T10:46:47;1.20;;;0.60;;
4206;SDS011;2117;47.972;7.830;2024-02-04T10:49:14;1.47;;;0.60;;
4206;SDS011;2117;47.972;7.830;2024-02-04T10:51:41;1.40;;;0.70;;
4206;SDS011;2117;47.972;7.830;2024-02-04T10:54:07;1.20;;;0.67;;
4206;SDS011;2117;47.972;7.830;2024-02-04T10:59:02;1.00;;;0.57;;
4206;SDS011;2117;47.972;7.830;2024-02-04T11:01:28;1.47;;;0.73;;
4206;SDS011;2117;47.972;7.830;2024-02-04T11:03:54;2.20;;;0.60;;
4206;SDS011;2117;47.972;7.830;2024-02-04T11:06:21;1.50;;;0.60;;
4206;SDS011;2117;47.972;7.830;2024-02-04T11:08:48;1.40;;;0.60;;
4206;SDS011;2117;47.972;7.830;2024-02-04T11:11:14;1.30;;;0.80;;
4206;SDS011;2117;47.972;7.830;2024-02-04T11:13:41;1.10;;;0.60;;
4206;SDS011;2117;47.972;7.830;2024-02-04T11:16:21;1.57;;;0.67;;
4206;SDS011;2117;47.972;7.830;2024-02-04T11:19:08;1.20;;;0.60;;
4206;SDS011;2117;47.972;7.830;2024-02-04T11:24:51;1.60;;;0.70;;
4206;SDS011;2117;47.972;7.830;2024-02-04T11:27:11;1.50;;;0.60;;
4206;SDS011;2117;47.972;7.830;2024-02-04T11:29:38;2.50;;;0.70;;
4206;SDS011;2117;47.972;7.830;2024-02-04T11:32:05;1.20;;;0.53;;
4206;SDS011;2117;47.972;7.830;2024-02-04T11:34:31;1.23;;;0.60;;
4206;SDS011;2117;47.972;7.830;2024-02-04T11:36:57;1.30;;;0.50;;
4206;SDS011;2117;47.972;7.830;2024-02-04T11:39:23;1.10;;;0.60;;
4206;SDS011;2117;47.972;7.830;2024-02-04T11:41:50;1.20;;;0.60;;
4206;SDS011;2117;47.972;7.830;2024-02-04T11:44:20;1.10;;;0.60;;
4206;SDS011;2117;47.972;7.830;2024-02-04T11:46:49;2.50;;;0.60;;
4206;SDS011;2117;47.972;7.830;2024-02-04T11:49:19;1.07;;;0.57;;
4206;SDS011;2117;47.972;7.830;2024-02-04T11:51:52;1.10;;;0.57;;
4206;SDS011;2117;47.972;7.830;2024-02-04T11:54:19;1.47;;;0.50;;
4206;SDS011;2117;47.972;7.830;2024-02-04T11:56:46;1.70;;;0.60;;
4206;SDS011;2117;47.972;7.830;2024-02-04T11:59:18;1.10;;;0.53;;
4206;SDS011;2117;47.972;7.830;2024-02-04T12:01:46;1.70;;;0.53;;
4206;SDS011;2117;47.972;7.830;2024-02-04T12:04:12;1.30;;;0.60;;
4206;SDS011;2117;47.972;7.830;2024-02-04T12:06:40;1.20;;;0.60;;
4206;SDS011;2117;47.972;7.830;2024-02-04T12:09:06;1.07;;;0.50;;
4206;SDS011;2117;47.972;7.830;2024-02-04T12:11:36;1.07;;;0.60;;
4206;SDS011;2117;47.972;7.830;2024-02-04T12:14:06;1.20;;;0.60;;
4206;SDS011;2117;47.972;7.830;2024-02-04T12:16:33;1.60;;;0.80;;
4206;SDS011;2117;47.972;7.830;2024-02-04T12:19:02;1.10;;;0.60;;
4206;SDS011;2117;47.972;7.830;2024-02-04T12:21:31;1.73;;;0.80;;
4206;SDS011;2117;47.972;7.830;2024-02-04T12:23:58;1.30;;;0.73;;
4206;SDS011;2117;47.972;7.830;2024-02-04T12:26:24;1.10;;;0.60;;
4206;SDS011;2117;47.972;7.830;2024-02-04T12:28:50;1.10;;;0.60;;
4206;SDS011;2117;47.972;7.830;2024-02-04T12:31:16;1.63;;;0.70;;
4206;SDS011;2117;47.972;7.830;2024-02-04T12:33:49;1.50;;;0.70;;
4206;SDS011;2117;47.972;7.830;2024-02-04T12:36:26;1.10;;;0.70;;
4206;SDS011;2117;47.972;7.830;2024-02-04T12:38:56;1.30;;;0.63;;
4206;SDS011;2117;47.972;7.830;2024-02-04T12:41:23;1.50;;;0.70;;
4206;SDS011;2117;47.972;7.830;2024-02-04T12:43:53;1.33;;;0.60;;
4206;SDS011;2117;47.972;7.830;2024-02-04T12:46:20;1.40;;;0.70;;
4206;SDS011;2117;47.972;7.830;2024-02-04T12:51:29;1.30;;;0.60;;
4206;SDS011;2117;47.972;7.830;2024-02-04T12:54:08;1.30;;;0.70;;
4206;SDS011;2117;47.972;7.830;2024-02-04T12:56:48;1.53;;;0.80;;
4206;SDS011;2117;47.972;7.830;2024-02-04T12:59:31;2.27;;;0.80;;
4206;SDS011;2117;47.972;7.830;2024-02-04T13:02:03;1.53;;;0.80;;
4206;SDS011;2117;47.972;7.830;2024-02-04T13:04:33;1.20;;;0.60;;
4206;SDS011;2117;47.972;7.830;2024-02-04T13:07:06;2.30;;;0.70;;
4206;SDS011;2117;47.972;7.830;2024-02-04T13:09:34;1.47;;;0.80;;
4206;SDS011;2117;47.972;7.830;2024-02-04T13:12:03;1.80;;;0.80;;
4206;SDS011;2117;47.972;7.830;2024-02-04T13:14:31;1.30;;;0.70;;
4206;SDS011;2117;47.972;7.830;2024-02-04T13:16:57;1.20;;;0.70;;
4206;SDS011;2117;47.972;7.830;2024-02-04T13:19:22;4.60;;;0.77;;
4206;SDS011;2117;47.972;7.830;2024-02-04T13:21:48;1.70;;;0.80;;
4206;SDS011;2117;47.972;7.830;2024-02-04T13:24:14;1.30;;;0.73;;
4206;SDS011;2117;47.972;7.830;2024-02-04T13:26:39;1.30;;;0.70;;
4206;SDS011;2117;47.972;7.830;2024-02-04T13:29:05;1.53;;;0.87;;
4206;SDS011;2117;47.972;7.830;2024-02-04T13:31:30;1.40;;;0.70;;
4206;SDS011;2117;47.972;7.830;2024-02-04T13:33:56;1.77;;;0.83;;
4206;SDS011;2117;47.972;7.830;2024-02-04T13:36:22;3.07;;;0.70;;
4206;SDS011;2117;47.972;7.830;2024-02-04T13:38:48;1.80;;;0.80;;
4206;SDS011;2117;47.972;7.830;2024-02-04T13:41:14;2.37;;;0.90;;
4206;SDS011;2117;47.972;7.830;2024-02-04T13:43:39;4.23;;;0.80;;
4206;SDS011;2117;47.972;7.830;2024-02-04T13:46:05;1.30;;;0.60;;
4206;SDS011;2117;47.972;7.830;2024-02-04T13:48:30;1.30;;;0.70;;
4206;SDS011;2117;47.972;7.830;2024-02-04T13:50:56;3.80;;;0.87;;
4206;SDS011;2117;47.972;7.830;2024-02-04T13:53:22;1.40;;;0.80;;
4206;SDS011;2117;47.972;7.830;2024-02-04T13:55:48;3.63;;;0.90;;
4206;SDS011;2117;47.972;7.830;2024-02-04T13:58:14;2.07;;;1.30;;
4206;SDS011;2117;47.972;7.830;2024-02-04T14:00:40;2.00;;;1.00;;
4206;SDS011;2117;47.972;7.830;2024-02-04T14:03:05;1.60;;;0.80;;
4206;SDS011;2117;47.972;7.830;2024-02-04T14:05:31;1.40;;;0.60;;
4206;SDS011;2117;47.972;7.830;2024-02-04T14:07:58;1.60;;;0.80;;
4206;SDS011;2117;47.972;7.830;2024-02-04T14:10:23;1.83;;;0.70;;
4206;SDS011;2117;47.972;7.830;2024-02-04T14:12:49;1.70;;;0.80;;
4206;SDS011;2117;47.972;7.830;2024-02-04T14:15:14;1.70;;;0.90;;
4206;SDS011;2117;47.972;7.830;2024-02-04T14:17:41;2.07;;;0.90;;
4206;SDS011;2117;47.972;7.830;2024-02-04T14:20:07;2.43;;;1.17;;
4206;SDS011;2117;47.972;7.830;2024-02-04T14:22:34;3.43;;;1.30;;
4206;SDS011;2117;47.972;7.830;2024-02-04T14:25:00;13.10;;;8.60;;
4206;SDS011;2117;47.972;7.830;2024-02-04T14:27:25;3.27;;;1.90;;
4206;SDS011;2117;47.972;7.830;2024-02-04T14:29:51;4.50;;;2.43;;
4206;SDS011;2117;47.972;7.830;2024-02-04T14:32:17;4.63;;;2.30;;
4206;SDS011;2117;47.972;7.830;2024-02-04T14:34:43;1.93;;;1.23;;
4206;SDS011;2117;47.972;7.830;2024-02-04T14:37:09;6.47;;;1.10;;
4206;SDS011;2117;47.972;7.830;2024-02-04T14:39:35;2.27;;;1.17;;
4206;SDS011;2117;47.972;7.830;2024-02-04T14:42:01;2.53;;;1.30;;
4206;SDS011;2117;47.972;7.830;2024-02-04T14:44:26;3.10;;;2.03;;
4206;SDS011;2117;47.972;7.830;2024-02-04T14:46:52;4.03;;;1.97;;
4206;SDS011;2117;47.972;7.830;2024-02-04T14:49:18;2.20;;;1.40;;
4206;SDS011;2117;47.972;7.830;2024-02-04T14:51:43;2.13;;;1.20;;
4206;SDS011;2117;47.972;7.830;2024-02-04T14:54:09;4.13;;;1.70;;
4206;SDS011;2117;47.972;7.830;2024-02-04T14:56:38;3.10;;;1.10;;
4206;SDS011;2117;47.972;7.830;2024-02-04T14:59:04;2.57;;;1.10;;
4206;SDS011;2117;47.972;7.830;2024-02-04T15:01:31;2.13;;;1.10;;
4206;SDS011;2117;47.972;7.830;2024-02-04T15:03:57;1.93;;;1.27;;
4206;SDS011;2117;47.972;7.830;2024-02-04T15:06:22;3.17;;;1.30;;
4206;SDS011;2117;47.972;7.830;2024-02-04T15:08:48;2.93;;;1.37;;
4206;SDS011;2117;47.972;7.830;2024-02-04T15:11:13;2.50;;;1.10;;
4206;SDS011;2117;47.972;7.830;2024-02-04T15:13:39;3.77;;;1.70;;
4206;SDS011;2117;47.972;7.830;2024-02-04T15:16:05;2.30;;;1.50;;
4206;SDS011;2117;47.972;7.830;2024-02-04T15:18:32;3.90;;;1.83;;
4206;SDS011;2117;47.972;7.830;2024-02-04T15:20:58;5.27;;;1.83;;